Cyrene, Missouri
Current Conditions -  °F | °C
As of 9:35 AM on Saturday 20 Dec 2014 (Local Time) from KPPQ Reporting Station
Haze Haze  
Wind Chill: 29°   Ceiling: 1300
Heat Index: 34°   Visibility: 5mi
Dew Point: 31°   Wind: 6mph
Humidity: 87%   Direction: 170°S
Pressure: 30.27"   Gusts: NA
Location:  39.321°N, 91.1912°W
Report Text: KPPQ 201535Z AUTO 17005KT 5SM BR OVC013 01/M01 A3027 RMK AO2 T00131007
Loading
Personal Weather Stations






























Interactive Weather Map New forecast layout! Learn more

10-Day Weather Forecast

Advertisements
Track Severe Weather on mobile